地図

経路データ

SID SEASON NUMBER BASIN SUBBASIN NAME ISO_TIME NATURE LAT LON WMO_WIND WMO_PRES WMO_AGENCY TRACK_TYPE DIST2LAND LANDFALL IFLAG USA_AGENCY USA_ATCF_ID USA_LAT USA_LON USA_RECORD USA_STATUS USA_WIND USA_PRES USA_SSHS USA_R34_NE USA_R34_SE USA_R34_SW USA_R34_NW USA_R50_NE USA_R50_SE USA_R50_SW USA_R50_NW USA_R64_NE USA_R64_SE USA_R64_SW USA_R64_NW USA_POCI USA_ROCI USA_RMW USA_EYE TOKYO_LAT TOKYO_LON TOKYO_GRADE TOKYO_WIND TOKYO_PRES TOKYO_R50_DIR TOKYO_R50_LONG TOKYO_R50_SHORT TOKYO_R30_DIR TOKYO_R30_LONG TOKYO_R30_SHORT TOKYO_LAND CMA_LAT CMA_LON CMA_CAT CMA_WIND CMA_PRES HKO_LAT HKO_LON HKO_CAT HKO_WIND HKO_PRES NEWDELHI_LAT NEWDELHI_LON NEWDELHI_GRADE NEWDELHI_WIND NEWDELHI_PRES NEWDELHI_CI NEWDELHI_DP NEWDELHI_POCI REUNION_LAT REUNION_LON REUNION_TYPE REUNION_WIND REUNION_PRES REUNION_TNUM REUNION_CI REUNION_RMW REUNION_R34_NE REUNION_R34_SE REUNION_R34_SW REUNION_R34_NW REUNION_R50_NE REUNION_R50_SE REUNION_R50_SW REUNION_R50_NW REUNION_R64_NE REUNION_R64_SE REUNION_R64_SW REUNION_R64_NW BOM_LAT BOM_LON BOM_TYPE BOM_WIND BOM_PRES BOM_TNUM BOM_CI BOM_RMW BOM_R34_NE BOM_R34_SE BOM_R34_SW BOM_R34_NW BOM_R50_NE BOM_R50_SE BOM_R50_SW BOM_R50_NW BOM_R64_NE BOM_R64_SE BOM_R64_SW BOM_R64_NW BOM_ROCI BOM_POCI BOM_EYE BOM_POS_METHOD BOM_PRES_METHOD NADI_LAT NADI_LON NADI_CAT NADI_WIND NADI_PRES WELLINGTON_LAT WELLINGTON_LON WELLINGTON_WIND WELLINGTON_PRES DS824_LAT DS824_LON DS824_STAGE DS824_WIND DS824_PRES TD9636_LAT TD9636_LON TD9636_STAGE TD9636_WIND TD9636_PRES TD9635_LAT TD9635_LON TD9635_WIND TD9635_PRES TD9635_ROCI NEUMANN_LAT NEUMANN_LON NEUMANN_CLASS NEUMANN_WIND NEUMANN_PRES MLC_LAT MLC_LON MLC_CLASS MLC_WIND MLC_PRES USA_GUST BOM_GUST BOM_GUST_PER REUNION_GUST REUNION_GUST_PER USA_SEAHGT USA_SEARAD_NE USA_SEARAD_SE USA_SEARAD_SW USA_SEARAD_NW STORM_SPEED STORM_DIR
1955329N10129 1955 95 WP MM PATSY 1955-11-25 06:00:00 TS 9.50000 128.550 1002 tokyo main 264 261 _OO___________ -1 9.50000 128.600 2 1002 0 0 0 9.50000 128.500 1 29 1002 2 0
1955329N10129 1955 95 WP MM PATSY 1955-11-25 09:00:00 TS 9.40000 128.553 main 261 258 _PP___________ -1 9.40000 128.603 2 1002 0 0 9.40000 128.503 1 29 1002 2 172
1955329N10129 1955 95 WP MM PATSY 1955-11-25 12:00:00 TS 9.30000 128.550 1002 tokyo main 258 245 _OO___________ -1 9.30000 128.600 2 1002 0 0 0 9.30000 128.500 1 29 1002 2 188
1955329N10129 1955 95 WP MM PATSY 1955-11-25 15:00:00 TS 9.20000 128.542 main 245 244 _PP___________ -1 9.20000 128.592 2 1002 0 0 9.20000 128.492 1 29 1002 2 172
1955329N10129 1955 95 WP MM PATSY 1955-11-25 18:00:00 TS 9.10000 128.550 1002 tokyo main 255 253 _OO___________ -1 9.10000 128.600 2 1002 0 0 0 9.10000 128.500 1 29 1002 2 159
1955329N10129 1955 95 WP MM PATSY 1955-11-25 21:00:00 TS 9.00750 128.608 main 253 251 _PP___________ -1 9.00000 128.665 2 1002 0 0 9.01500 128.550 1 29 1002 2 153
1955329N10129 1955 95 WP MM PATSY 1955-11-26 00:00:00 TS 8.90000 128.650 1002 tokyo main 261 248 _OO___________ -1 8.90000 128.700 2 1002 0 0 0 8.90000 128.600 1 29 1002 3 171
1955329N10129 1955 95 WP MM PATSY 1955-11-26 03:00:00 TS 8.74249 128.638 main 246 242 _PP___________ -1 8.79249 128.637 2 1002 0 0 8.69248 128.638 1 33 1001 3 197
1955329N10129 1955 95 WP MM PATSY 1955-11-26 06:00:00 TS 8.60000 128.550 1002 tokyo main 242 217 _OO___________ -1 8.70000 128.500 2 1002 0 0 0 8.50000 128.600 2 38 1000 3 230
1955329N10129 1955 95 WP MM PATSY 1955-11-26 09:00:00 TS 8.52750 128.380 main 217 197 _PP___________ -1 8.63500 128.323 2 1002 0 0 8.42001 128.438 2 38 1000 4 256
1955329N10129 1955 95 WP MM PATSY 1955-11-26 12:00:00 TS 8.50000 128.150 1002 tokyo main 197 166 _OO___________ -1 8.60000 128.100 2 1002 0 0 0 8.40000 128.200 2 38 1000 4 265
1955329N10129 1955 95 WP MM PATSY 1955-11-26 15:00:00 TS 8.48868 127.934 main 166 144 _PP___________ -1 8.59244 127.880 2 1002 0 0 8.38492 127.987 2 38 999 5 270
1955329N10129 1955 95 WP MM PATSY 1955-11-26 18:00:00 TS 8.50000 127.650 1002 tokyo main 144 101 _OO___________ -1 8.60000 127.600 2 1002 0 0 0 8.40000 127.700 2 38 999 7 273
1955329N10129 1955 95 WP MM PATSY 1955-11-26 21:00:00 TS 8.52129 127.248 main 90 49 _PP___________ -1 8.60002 127.223 2 1002 0 0 8.44256 127.273 2 38 999 8 273
1955329N10129 1955 95 WP MM PATSY 1955-11-27 00:00:00 TS 8.55000 126.800 1002 tokyo main 55 24 _OO___________ -1 8.60000 126.800 2 1002 0 0 0 8.50000 126.800 2 38 999 8 273
1955329N10129 1955 95 WP MM PATSY 1955-11-27 03:00:00 TS 8.57115 126.411 main 24 0 _PP___________ -1 8.59241 126.415 2 1001 0 0 8.54988 126.407 2 38 999 8 274
1955329N10129 1955 95 WP MM PATSY 1955-11-27 06:00:00 TS 8.60000 126.000 1000 tokyo main 0 0 _OO___________ -1 8.60000 126.000 2 1000 0 0 0 8.60000 126.000 2 38 999 9 275
1955329N10129 1955 95 WP MM PATSY 1955-11-27 09:00:00 TS 8.64629 125.500 main 0 0 _PP___________ -1 8.64249 125.515 2 1000 0 0 8.65009 125.485 2 38 999 10 276
1955329N10129 1955 95 WP MM PATSY 1955-11-27 12:00:00 TS 8.70000 125.000 1000 tokyo main 0 0 _OO___________ -1 8.70000 125.000 2 1000 0 0 0 8.70000 125.000 2 38 999 9 276
1955329N10129 1955 95 WP MM PATSY 1955-11-27 15:00:00 TS 8.74617 124.585 main 22 22 _PP___________ -1 8.74249 124.485 2 1000 0 0 8.74985 124.685 2 43 998 8 277
1955329N10129 1955 95 WP MM PATSY 1955-11-27 18:00:00 TS 8.80000 124.200 1000 tokyo main 35 22 _OO___________ -1 8.80000 124.000 2 1000 0 0 0 8.80000 124.400 3 48 998 8 278
1955329N10129 1955 95 WP MM PATSY 1955-11-27 21:00:00 TS 8.85248 123.789 main 33 31 _PP___________ -1 8.86997 123.562 2 1000 0 0 8.83500 124.015 3 48 998 8 281
1955329N10129 1955 95 WP MM PATSY 1955-11-28 00:00:00 TS 8.95000 123.400 1000 tokyo main 24 0 _OO___________ -1 9.00000 123.200 2 1000 0 0 0 8.90000 123.600 3 48 998 8 289
1955329N10129 1955 95 WP MM PATSY 1955-11-28 03:00:00 TS 9.11253 123.015 main 0 0 _PP___________ -1 9.22748 122.883 2 999 0 0 8.99758 123.148 3 48 998 8 302
1955329N10129 1955 95 WP MM PATSY 1955-11-28 06:00:00 TS 9.35000 122.750 998 tokyo main 0 0 _OO___________ -1 9.50000 122.700 9 998 0 0 0 9.20000 122.800 3 48 998 6 326
1955329N10129 1955 95 WP MM PATSY 1955-11-28 09:00:00 TS 9.61119 122.675 main 0 0 _PP___________ -1 9.68997 122.690 9 998 0 0 9.53242 122.660 3 48 998 7 359
1955329N10129 1955 95 WP MM PATSY 1955-11-28 12:00:00 TS 10.0000 122.750 998 tokyo main 0 0 _OO___________ -1 10.0000 122.800 9 998 0 0 0 10.0000 122.700 3 48 998 10 14
1955329N10129 1955 95 WP MM PATSY 1955-11-28 15:00:00 TS 10.5838 122.917 main 0 0 _PP___________ -1 10.5975 122.950 9 998 0 0 10.5701 122.885 3 48 998 13 15
1955329N10129 1955 95 WP MM PATSY 1955-11-28 18:00:00 TS 11.2500 123.100 998 tokyo main 0 0 _OO___________ -1 11.3000 123.100 9 998 0 0 0 11.2000 123.100 3 48 998 14 11
1955329N10129 1955 95 WP MM PATSY 1955-11-28 21:00:00 TS 11.9025 123.184 main 0 0 _PP___________ -1 11.9600 123.180 9 998 0 0 11.8450 123.188 3 48 997 12 5
1955329N10129 1955 95 WP MM PATSY 1955-11-29 00:00:00 TS 12.4500 123.200 998 tokyo main 10 10 _OO___________ -1 12.5000 123.200 9 998 0 0 0 12.4000 123.200 3 48 997 9 358
1955329N10129 1955 95 WP MM PATSY 1955-11-29 03:00:00 TS 12.7850 123.165 main 24 21 _PP___________ -1 12.8100 123.165 9 998 0 0 12.7600 123.165 3 48 997 6 350
1955329N10129 1955 95 WP MM PATSY 1955-11-29 06:00:00 TS 13.0000 123.100 998 tokyo main 21 21 _OO___________ -1 13.0000 123.100 9 998 0 0 0 13.0000 123.100 3 48 997 4 344
1955329N10129 1955 95 WP MM PATSY 1955-11-29 09:00:00 TS 13.1963 123.043 main 31 15 _PP___________ -1 13.1925 123.043 9 998 0 0 13.2000 123.043 3 48 997 3 353
1955329N10129 1955 95 WP MM PATSY 1955-11-29 12:00:00 TS 13.3333 123.067 998 tokyo main 15 0 OOO______OOO__ jtwc_wp WP211955 13.2000 123.200 40 0 13.4000 123.000 9 998 0 0 0 13.4000 123.000 3 48 997 13.2000 123.200 TC 40 13.2000 123.200 2 40 13.2000 123.200 40 1001 240 4 358
1955329N10129 1955 95 WP MM PATSY 1955-11-29 15:00:00 TS 13.6349 123.030 main 0 0 PPP______PPP__ WP211955 13.6025 123.035 42 0 13.6700 122.978 9 998 0 0 13.6700 122.985 3 48 996 13.6025 123.035 TC 42 13.5914 123.209 2 43 13.6025 123.035 42 1001 270 7 357
1955329N10129 1955 95 WP MM PATSY 1955-11-29 18:00:00 TS 13.9979 123.037 998 tokyo main 0 0 OOO______OPO__ jtwc_wp WP211955 14.0000 123.000 45 0 14.0000 123.000 9 998 0 0 0 14.0000 123.000 3 48 996 14.0000 123.000 TC 45 13.9862 123.245 2 46 14.0000 123.000 45 1001 300 8 10
1955329N10129 1955 95 WP MM PATSY 1955-11-29 21:00:00 TS 14.3867 123.163 main 39 39 PPP______PPP__ WP211955 14.3925 123.182 47 0 14.3775 123.078 9 998 0 0 14.3775 123.020 3 48 996 14.3925 123.182 TC 47 14.3879 123.333 2 49 14.3925 123.182 48 1000 300 9 23
1955329N10129 1955 95 WP MM PATSY 1955-11-30 00:00:00 TS 14.8000 123.383 998 tokyo main 86 86 OOO______OOO__ jtwc_wp WP211955 14.8000 123.500 50 0 14.8000 123.200 9 998 0 0 0 14.8000 123.100 3 48 996 14.8000 123.500 TC 50 14.8000 123.500 2 52 14.8000 123.500 52 1000 300 10 28
1955329N10129 1955 95 WP MM PATSY 1955-11-30 03:00:00 TS 15.2491 123.637 main 134 134 PPP______PPP__ WP211955 15.2575 123.835 55 0 15.2499 123.305 9 998 0 0 15.2499 123.248 3 48 996 15.2575 123.835 TC 55 15.2223 123.763 2 54 15.2575 123.835 56 999 270 11 32
1955329N10129 1955 95 WP MM PATSY 1955-11-30 06:00:00 TS 15.6902 123.951 998 tokyo main 190 190 OOO______OPO__ jtwc_wp WP211955 15.7000 124.200 60 0 15.7000 123.500 9 998 0 0 0 15.7000 123.500 3 48 996 15.7000 124.200 TC 60 15.6411 124.104 2 56 15.7000 124.200 60 998 240 11 38
1955329N10129 1955 95 WP MM PATSY 1955-11-30 09:00:00 TS 16.0861 124.311 main 211 211 PPP______PPP__ WP211955 16.0724 124.543 60 0 16.1301 123.870 9 998 0 0 16.1301 123.877 3 48 995 16.0724 124.543 TC 60 16.0393 124.493 2 58 16.0724 124.543 60 997 270 10 44
1955329N10129 1955 95 WP MM PATSY 1955-11-30 12:00:00 TS 16.4333 124.700 998 tokyo main 241 238 OOO______OOO__ jtwc_wp WP211955 16.4000 124.900 60 0 16.5000 124.300 9 998 0 0 0 16.5000 124.300 3 48 995 16.4000 124.900 TC 60 16.4000 124.900 2 60 16.4000 124.900 60 997 300 9 48
1955329N10129 1955 95 WP MM PATSY 1955-11-30 15:00:00 TS 16.7089 125.034 main 267 267 PPP______PPP__ WP211955 16.6923 125.270 70 1 16.7416 124.561 9 997 0 0 16.7416 124.561 3 48 995 16.6923 125.270 TC 70 16.6933 125.271 2 69 16.6923 125.270 69 996 330 9 52
1955329N10129 1955 95 WP MM PATSY 1955-11-30 18:00:00 TS 17.0000 125.467 996 tokyo main 319 319 OOO______OOO__ jtwc_wp WP211955 17.0000 125.700 80 1 17.0000 125.000 9 996 0 0 0 17.0000 125.000 3 48 995 17.0000 125.700 TC 80 17.0000 125.700 3 78 17.0000 125.700 78 996 360 12 56
1955329N10129 1955 95 WP MM PATSY 1955-11-30 21:00:00 TS 17.3776 126.086 main 385 385 PPP______PPP__ WP211955 17.3543 126.161 87 2 17.4136 125.932 9 995 0 0 17.4209 125.917 3 53 994 17.3543 126.161 TC 87 17.3682 126.183 3 86 17.3543 126.161 86 995 360 16 58
1955329N10129 1955 95 WP MM PATSY 1955-12-01 00:00:00 TS 17.8333 126.867 994 tokyo main 475 475 OOO______OOO__ jtwc_wp WP211955 17.8000 126.800 95 2 17.9000 127.000 9 994 0 0 0 17.9000 127.000 3 58 994 17.8000 126.800 TC 95 17.8000 126.800 4 95 17.8000 126.800 95 994 360 19 59
1955329N10129 1955 95 WP MM PATSY 1955-12-01 03:00:00 TS 18.3616 127.779 main 580 580 PPP______PPP__ WP211955 18.3854 127.732 95 2 18.3920 127.853 9 993 0 0 18.3351 127.983 3 63 993 18.3854 127.732 TC 95 18.2862 127.640 4 95 18.3854 127.732 95 993 330 21 59
1955329N10129 1955 95 WP MM PATSY 1955-12-01 06:00:00 TS 18.9213 128.742 992 tokyo main 676 676 OOO______OPO__ jtwc_wp WP211955 19.0000 128.800 95 2 18.9000 128.600 9 992 0 0 0 18.8000 128.800 4 68 992 19.0000 128.800 TC 95 18.8279 128.649 4 95 19.0000 128.800 95 993 300 20 58
1955329N10129 1955 95 WP MM PATSY 1955-12-01 09:00:00 TS 19.4481 129.600 main 776 776 PPP______PPP__ WP211955 19.5144 129.801 95 2 19.3912 129.214 9 991 0 0 19.3486 129.251 4 77 990 19.5144 129.801 TC 95 19.4052 129.734 4 95 19.5144 129.801 95 991 300 19 57
1955329N10129 1955 95 WP MM PATSY 1955-12-01 12:00:00 TS 19.9667 130.467 990 tokyo main 879 879 OOO______OOO__ jtwc_wp WP211955 20.0000 130.800 95 2 19.9000 129.900 9 990 0 0 0 19.9000 129.700 5 87 989 20.0000 130.800 TC 95 20.0000 130.800 4 95 20.0000 130.800 95 989 300 20 59
1955329N10129 1955 95 WP MM PATSY 1955-12-01 15:00:00 TS 20.4655 131.433 main 982 982 PPP______PPP__ WP211955 20.4700 131.838 102 3 20.4504 130.897 9 987 0 0 20.3495 130.481 5 96 986 20.4700 131.838 TC 102 20.5831 131.705 4 103 20.4700 131.838 103 986 330 21 61
1955329N10129 1955 95 WP MM PATSY 1955-12-01 18:00:00 TS 20.9969 132.413 985 tokyo main 1096 1089 OOO______OPO__ jtwc_wp WP211955 21.0000 132.800 110 3 21.0000 132.000 9 985 0 0 0 20.8000 131.500 6 106 984 21.0000 132.800 TC 110 21.1816 132.576 4 112 21.0000 132.800 112 984 360 21 58
1955329N10129 1955 95 WP MM PATSY 1955-12-01 21:00:00 TS 21.5827 133.314 main 1081 1039 PPP______PPP__ WP211955 21.6689 133.573 120 4 21.4315 132.995 9 982 0 0 21.2685 132.736 6 116 982 21.6689 133.573 TC 120 21.7894 133.434 4 121 21.6689 133.573 121 982 390 21 53
1955329N10129 1955 95 WP MM PATSY 1955-12-02 00:00:00 TS 22.2500 134.200 980 tokyo main 1031 989 OOO______OOO__ jtwc_wp WP211955 22.4000 134.300 130 4 22.0000 134.000 9 980 0 0 0 21.9000 134.000 6 126 980 22.4000 134.300 TC 130 22.4000 134.300 4 130 22.4000 134.300 130 980 420 22 48
1955329N10129 1955 95 WP MM PATSY 1955-12-02 03:00:00 TS 23.0569 135.105 main 983 953 PPP______PPP__ WP211955 23.1294 135.113 120 4 22.9846 135.083 9 982 0 0 22.8986 135.036 6 116 981 23.1294 135.113 TC 120 23.0702 135.173 4 118 23.1294 135.113 120 979 450 23 47
1955329N10129 1955 95 WP MM PATSY 1955-12-02 06:00:00 TS 23.8384 136.044 985 tokyo main 958 944 OOO______OPO__ jtwc_wp WP211955 23.8000 136.000 110 3 24.0000 136.200 9 985 0 0 0 23.9000 136.000 6 106 983 23.8000 136.000 TC 110 23.7305 136.065 4 107 23.8000 136.000 110 978 480 22 51
1955329N10129 1955 95 WP MM PATSY 1955-12-02 09:00:00 TS 24.4521 137.016 main 945 945 PPP______PPP__ WP211955 24.3594 136.963 97 3 24.7342 137.308 9 988 0 0 24.5742 136.897 6 91 986 24.3594 136.963 TC 97 24.3258 137.000 4 96 24.3594 136.963 97 978 480 21 60
1955329N10129 1955 95 WP MM PATSY 1955-12-02 12:00:00 TS 24.9000 138.067 992 tokyo main 974 965 OOO______OOO__ jtwc_wp WP211955 24.8000 138.000 85 2 25.2000 138.400 9 992 0 0 0 25.0000 138.000 4 77 990 24.8000 138.000 TC 85 24.8000 138.000 4 85 24.8000 138.000 85 978 480 22 69
1955329N10129 1955 95 WP MM PATSY 1955-12-02 15:00:00 TS 25.2114 139.239 main 972 968 PPP______PPP__ WP211955 25.1741 139.070 72 1 25.3957 139.422 9 993 0 0 25.2373 139.723 4 67 992 25.1741 139.070 TC 72 25.1129 139.078 4 76 25.1741 139.070 72 982 480 22 78
1955329N10129 1955 95 WP MM PATSY 1955-12-02 18:00:00 TS 25.3682 140.463 995 tokyo main 1001 1001 OOO______OPO__ jtwc_wp WP211955 25.4000 140.200 60 0 25.4000 140.500 9 995 0 0 0 25.3000 141.400 3 58 995 25.4000 140.200 TC 60 25.2894 140.218 4 67 25.4000 140.200 60 987 480 21 86
1955329N10129 1955 95 WP MM PATSY 1955-12-02 21:00:00 TS 25.3448 141.592 main 1063 1063 PPP______PPP__ WP211955 25.3759 141.351 55 0 25.3112 141.728 9 996 0 0 25.2718 142.275 3 48 997 25.3759 141.351 TC 55 25.3710 141.399 4 58 25.3759 141.351 55 993 420 21 90
1955329N10129 1955 95 WP MM PATSY 1955-12-03 00:00:00 TS 25.3556 142.822 998 tokyo main 1095 1095 OOO______OOO__ jtwc_wp WP211955 25.4000 142.600 50 0 25.3000 143.100 9 998 0 0 0 25.3000 143.100 2 38 1000 25.4000 142.600 TC 50 25.4000 142.600 2 50 25.4000 142.600 50 1000 360 25 83
1955329N10129 1955 95 WP MM PATSY 1955-12-03 03:00:00 TS 25.6520 144.317 main 1109 1109 PPP______P_P__ WP211955 25.7486 144.000 40 0 25.6038 144.588 9 999 0 0 25.5554 144.522 2 38 1000 25.7486 144.000 TC 40 2 25.7486 144.000 40 1000 360 30 76
1955329N10129 1955 95 WP MM PATSY 1955-12-03 06:00:00 MX 26.0455 146.009 1000 tokyo main 1151 1146 OOO______O_O__ jtwc_wp WP211955 26.3000 145.500 30 -1 26.0000 146.200 9 1000 0 0 0 25.9000 146.200 9 38 1000 26.3000 145.500 TC 30 2 26.3000 145.500 30 1001 360 33 79
1955329N10129 1955 95 WP MM PATSY 1955-12-03 09:00:00 ET 26.2575 147.877 main 1223 1223 _PP___________ WP211955 -1 26.2862 147.878 9 1002 0 0 26.2288 147.877 9 33 1002 TC 2 33 82
1955329N10129 1955 95 WP MM PATSY 1955-12-03 12:00:00 ET 26.5000 149.600 1004 tokyo main 1306 1306 _OO___________ -1 26.5000 149.600 6 1004 0 0 0 26.5000 149.600 9 29 1004 31 83
1955329N10129 1955 95 WP MM PATSY 1955-12-03 15:00:00 ET 26.6357 151.308 main 1412 1412 _PP___________ -1 26.6357 151.308 6 1005 0 0 26.6357 151.309 9 1005 30 86
1955329N10129 1955 95 WP MM PATSY 1955-12-03 18:00:00 ET 26.7000 153.000 1006 tokyo main 1523 1523 _OO___________ -1 26.7000 153.000 6 1006 0 0 0 26.7000 153.000 9 1006 30 88
1955329N10129 1955 95 WP MM PATSY 1955-12-03 21:00:00 ET 26.7474 154.663 main 1647 1647 _PP___________ -1 26.7161 154.660 6 1007 0 0 26.7631 154.665 9 1007 29 88
1955329N10129 1955 95 WP MM PATSY 1955-12-04 00:00:00 ET 26.7800 156.300 1008 tokyo main 1763 1763 _OO___________ -1 26.7000 156.300 6 1008 0 0 0 26.8000 156.300 9 1008 29 89
1955329N10129 1955 95 WP MM PATSY 1955-12-04 03:00:00 ET 26.7982 157.916 main 1890 1890 __P___________ -1 6 0 0 26.7982 157.916 9 1008 29 90
1955329N10129 1955 95 WP MM PATSY 1955-12-04 06:00:00 ET 26.8000 159.500 main 2020 2020 __O___________ -1 26.8000 159.500 9 1008 28 89
1955329N10129 1955 95 WP MM PATSY 1955-12-04 09:00:00 ET 26.8408 161.057 main 2152 2152 __P___________ -1 26.8408 161.057 9 1008 28 88
1955329N10129 1955 95 WP MM PATSY 1955-12-04 12:00:00 ET 26.9000 162.600 main 2273 __O___________ -1 26.9000 162.600 9 1008 28 88

デジタル台風データ・検索

IBTrACS Databaseについて

本データベースは、米国NOAAが公開する1842年以降の世界の熱帯低気圧のベストトラックデータアーカイブInternational Best Track Archive for Climate Stewardship (IBTrACS)を、ウェブで閲覧しやすい形式に変換したものです。

最終更新日:2021-12-06